sensor_id;sensor_type;location;lat;lon;timestamp;temperature;humidity
41592;DHT22;28026;48.562;14.440;2023-09-18T00:01:48;17.00;99.90
41592;DHT22;28026;48.562;14.440;2023-09-18T00:04:19;16.90;99.90
41592;DHT22;28026;48.562;14.440;2023-09-18T00:06:50;17.00;99.90
41592;DHT22;28026;48.562;14.440;2023-09-18T00:09:21;17.20;99.90
41592;DHT22;28026;48.562;14.440;2023-09-18T00:11:52;17.20;99.90
41592;DHT22;28026;48.562;14.440;2023-09-18T00:14:23;17.20;99.90
41592;DHT22;28026;48.562;14.440;2023-09-18T00:16:54;17.20;99.90
41592;DHT22;28026;48.562;14.440;2023-09-18T00:19:27;17.10;99.90
41592;DHT22;28026;48.562;14.440;2023-09-18T00:21:58;17.00;99.90
41592;DHT22;28026;48.562;14.440;2023-09-18T00:24:31;16.80;99.90
41592;DHT22;28026;48.562;14.440;2023-09-18T00:27:02;16.80;99.90
41592;DHT22;28026;48.562;14.440;2023-09-18T00:29:33;16.70;99.90
41592;DHT22;28026;48.562;14.440;2023-09-18T00:32:05;16.60;99.90
41592;DHT22;28026;48.562;14.440;2023-09-18T00:34:36;16.60;99.90
41592;DHT22;28026;48.562;14.440;2023-09-18T00:37:07;16.70;99.90
41592;DHT22;28026;48.562;14.440;2023-09-18T00:39:42;16.80;99.90
41592;DHT22;28026;48.562;14.440;2023-09-18T00:42:14;16.80;99.90
41592;DHT22;28026;48.562;14.440;2023-09-18T00:44:48;16.40;99.90
41592;DHT22;28026;48.562;14.440;2023-09-18T00:47:20;16.20;99.90
41592;DHT22;28026;48.562;14.440;2023-09-18T00:49:52;16.30;99.90
41592;DHT22;28026;48.562;14.440;2023-09-18T00:52:24;16.40;99.90
41592;DHT22;28026;48.562;14.440;2023-09-18T00:54:57;16.50;99.90
41592;DHT22;28026;48.562;14.440;2023-09-18T00:57:28;16.50;99.90
41592;DHT22;28026;48.562;14.440;2023-09-18T01:00:00;16.60;99.90
41592;DHT22;28026;48.562;14.440;2023-09-18T01:02:34;16.60;99.90
41592;DHT22;28026;48.562;14.440;2023-09-18T01:05:06;16.60;99.90
41592;DHT22;28026;48.562;14.440;2023-09-18T01:07:37;16.60;99.90
41592;DHT22;28026;48.562;14.440;2023-09-18T01:10:08;16.70;99.90
41592;DHT22;28026;48.562;14.440;2023-09-18T01:15:26;16.10;99.90
41592;DHT22;28026;48.562;14.440;2023-09-18T01:18:03;16.10;99.90
41592;DHT22;28026;48.562;14.440;2023-09-18T01:20:35;16.30;99.90
41592;DHT22;28026;48.562;14.440;2023-09-18T01:23:05;16.40;99.90
41592;DHT22;28026;48.562;14.440;2023-09-18T01:25:36;16.30;99.90
41592;DHT22;28026;48.562;14.440;2023-09-18T01:28:08;16.20;99.90
41592;DHT22;28026;48.562;14.440;2023-09-18T01:30:39;16.10;99.90
41592;DHT22;28026;48.562;14.440;2023-09-18T01:33:10;16.10;99.90
41592;DHT22;28026;48.562;14.440;2023-09-18T01:35:44;16.10;99.90
41592;DHT22;28026;48.562;14.440;2023-09-18T01:38:16;16.20;99.90
41592;DHT22;28026;48.562;14.440;2023-09-18T01:40:48;16.10;99.90
41592;DHT22;28026;48.562;14.440;2023-09-18T01:43:21;15.60;99.90
41592;DHT22;28026;48.562;14.440;2023-09-18T01:45:52;15.00;99.90
41592;DHT22;28026;48.562;14.440;2023-09-18T01:48:25;15.00;99.90
41592;DHT22;28026;48.562;14.440;2023-09-18T01:50:56;15.20;99.90
41592;DHT22;28026;48.562;14.440;2023-09-18T01:53:26;15.40;99.90
41592;DHT22;28026;48.562;14.440;2023-09-18T01:55:57;15.50;99.90
41592;DHT22;28026;48.562;14.440;2023-09-18T01:58:28;15.70;99.90
41592;DHT22;28026;48.562;14.440;2023-09-18T02:01:02;15.80;99.90
41592;DHT22;28026;48.562;14.440;2023-09-18T02:03:34;15.80;99.90
41592;DHT22;28026;48.562;14.440;2023-09-18T02:06:05;15.90;99.90
41592;DHT22;28026;48.562;14.440;2023-09-18T02:08:36;15.80;99.90
41592;DHT22;28026;48.562;14.440;2023-09-18T02:11:07;16.00;99.90
41592;DHT22;28026;48.562;14.440;2023-09-18T02:13:38;16.10;99.90
41592;DHT22;28026;48.562;14.440;2023-09-18T02:16:08;16.00;99.90
41592;DHT22;28026;48.562;14.440;2023-09-18T02:18:39;16.00;99.90
41592;DHT22;28026;48.562;14.440;2023-09-18T02:21:10;15.80;99.90
41592;DHT22;28026;48.562;14.440;2023-09-18T02:23:41;15.70;99.90
41592;DHT22;28026;48.562;14.440;2023-09-18T02:26:12;15.50;99.90
41592;DHT22;28026;48.562;14.440;2023-09-18T02:28:42;15.50;99.90
41592;DHT22;28026;48.562;14.440;2023-09-18T02:31:14;15.50;99.90
41592;DHT22;28026;48.562;14.440;2023-09-18T02:33:45;15.60;99.90
41592;DHT22;28026;48.562;14.440;2023-09-18T02:36:17;15.60;99.90
41592;DHT22;28026;48.562;14.440;2023-09-18T02:38:47;15.70;99.90
41592;DHT22;28026;48.562;14.440;2023-09-18T02:41:18;15.70;99.90
41592;DHT22;28026;48.562;14.440;2023-09-18T02:43:49;15.80;99.90
41592;DHT22;28026;48.562;14.440;2023-09-18T02:46:20;15.90;99.90
41592;DHT22;28026;48.562;14.440;2023-09-18T02:48:51;16.10;99.90
41592;DHT22;28026;48.562;14.440;2023-09-18T02:51:22;16.30;99.90
41592;DHT22;28026;48.562;14.440;2023-09-18T02:53:54;16.40;99.90
41592;DHT22;28026;48.562;14.440;2023-09-18T02:56:24;16.30;99.90
41592;DHT22;28026;48.562;14.440;2023-09-18T02:58:55;16.10;99.90
41592;DHT22;28026;48.562;14.440;2023-09-18T03:01:26;16.10;99.90
41592;DHT22;28026;48.562;14.440;2023-09-18T03:03:57;16.00;99.90
41592;DHT22;28026;48.562;14.440;2023-09-18T03:06:28;15.60;99.90
41592;DHT22;28026;48.562;14.440;2023-09-18T03:08:59;15.10;99.90
41592;DHT22;28026;48.562;14.440;2023-09-18T03:11:30;15.20;99.90
41592;DHT22;28026;48.562;14.440;2023-09-18T03:14:01;15.70;99.90
41592;DHT22;28026;48.562;14.440;2023-09-18T03:16:32;16.00;99.90
41592;DHT22;28026;48.562;14.440;2023-09-18T03:19:03;16.20;99.90
41592;DHT22;28026;48.562;14.440;2023-09-18T03:21:34;16.40;99.90
41592;DHT22;28026;48.562;14.440;2023-09-18T03:24:06;16.40;99.90
41592;DHT22;28026;48.562;14.440;2023-09-18T03:26:37;16.40;99.90
41592;DHT22;28026;48.562;14.440;2023-09-18T03:29:08;16.40;99.90
41592;DHT22;28026;48.562;14.440;2023-09-18T03:31:39;16.50;99.90
41592;DHT22;28026;48.562;14.440;2023-09-18T03:34:10;16.60;99.90
41592;DHT22;28026;48.562;14.440;2023-09-18T03:36:40;16.60;99.90
41592;DHT22;28026;48.562;14.440;2023-09-18T03:39:11;16.60;99.90
41592;DHT22;28026;48.562;14.440;2023-09-18T03:41:42;16.60;99.90
41592;DHT22;28026;48.562;14.440;2023-09-18T03:44:13;16.50;99.90
41592;DHT22;28026;48.562;14.440;2023-09-18T03:46:44;16.50;99.90
41592;DHT22;28026;48.562;14.440;2023-09-18T03:49:15;16.20;99.90
41592;DHT22;28026;48.562;14.440;2023-09-18T03:51:46;15.60;99.90
41592;DHT22;28026;48.562;14.440;2023-09-18T03:54:17;15.70;99.90
41592;DHT22;28026;48.562;14.440;2023-09-18T03:56:47;15.70;99.90
41592;DHT22;28026;48.562;14.440;2023-09-18T03:59:18;15.80;99.90
41592;DHT22;28026;48.562;14.440;2023-09-18T04:01:49;15.90;99.90
41592;DHT22;28026;48.562;14.440;2023-09-18T04:04:20;16.00;99.90
41592;DHT22;28026;48.562;14.440;2023-09-18T04:06:51;16.30;99.90
41592;DHT22;28026;48.562;14.440;2023-09-18T04:09:22;16.30;99.90
41592;DHT22;28026;48.562;14.440;2023-09-18T04:11:53;16.40;99.90
41592;DHT22;28026;48.562;14.440;2023-09-18T04:14:25;16.40;99.90
41592;DHT22;28026;48.562;14.440;2023-09-18T04:16:56;16.30;99.90
41592;DHT22;28026;48.562;14.440;2023-09-18T04:19:27;16.30;99.90
41592;DHT22;28026;48.562;14.440;2023-09-18T04:21:59;15.90;99.90
41592;DHT22;28026;48.562;14.440;2023-09-18T04:24:29;15.70;99.90
41592;DHT22;28026;48.562;14.440;2023-09-18T04:27:01;15.70;99.90
41592;DHT22;28026;48.562;14.440;2023-09-18T04:29:32;15.80;99.90
41592;DHT22;28026;48.562;14.440;2023-09-18T04:32:03;15.70;99.90
41592;DHT22;28026;48.562;14.440;2023-09-18T04:34:35;15.70;99.90
41592;DHT22;28026;48.562;14.440;2023-09-18T04:37:06;15.80;99.90
41592;DHT22;28026;48.562;14.440;2023-09-18T04:39:37;15.80;99.90
41592;DHT22;28026;48.562;14.440;2023-09-18T04:42:08;15.90;99.90
41592;DHT22;28026;48.562;14.440;2023-09-18T04:44:39;16.00;99.90
41592;DHT22;28026;48.562;14.440;2023-09-18T04:47:10;16.00;99.90
41592;DHT22;28026;48.562;14.440;2023-09-18T04:49:41;16.00;99.90
41592;DHT22;28026;48.562;14.440;2023-09-18T04:52:12;15.80;99.90
41592;DHT22;28026;48.562;14.440;2023-09-18T04:54:42;15.80;99.90
41592;DHT22;28026;48.562;14.440;2023-09-18T04:57:13;15.80;99.90
41592;DHT22;28026;48.562;14.440;2023-09-18T04:59:44;15.60;99.90
41592;DHT22;28026;48.562;14.440;2023-09-18T05:02:15;15.50;99.90
41592;DHT22;28026;48.562;14.440;2023-09-18T05:04:46;15.50;99.90
41592;DHT22;28026;48.562;14.440;2023-09-18T05:07:17;15.70;99.90
41592;DHT22;28026;48.562;14.440;2023-09-18T05:09:48;15.60;99.90
41592;DHT22;28026;48.562;14.440;2023-09-18T05:12:19;15.70;99.90
41592;DHT22;28026;48.562;14.440;2023-09-18T05:14:50;15.30;99.90
41592;DHT22;28026;48.562;14.440;2023-09-18T05:17:42;15.40;99.90
41592;DHT22;28026;48.562;14.440;2023-09-18T05:20:23;15.70;99.90
41592;DHT22;28026;48.562;14.440;2023-09-18T05:22:55;15.70;99.90
41592;DHT22;28026;48.562;14.440;2023-09-18T05:25:29;15.80;99.90
41592;DHT22;28026;48.562;14.440;2023-09-18T05:28:02;16.20;99.90
41592;DHT22;28026;48.562;14.440;2023-09-18T05:30:36;16.50;99.90
41592;DHT22;28026;48.562;14.440;2023-09-18T05:33:09;16.70;99.90
41592;DHT22;28026;48.562;14.440;2023-09-18T05:35:42;16.70;99.90
41592;DHT22;28026;48.562;14.440;2023-09-18T05:38:14;16.80;99.90
41592;DHT22;28026;48.562;14.440;2023-09-18T05:40:48;16.90;99.90
41592;DHT22;28026;48.562;14.440;2023-09-18T05:43:18;16.90;99.90
41592;DHT22;28026;48.562;14.440;2023-09-18T05:45:49;17.00;99.90
41592;DHT22;28026;48.562;14.440;2023-09-18T05:48:20;16.80;99.90
41592;DHT22;28026;48.562;14.440;2023-09-18T05:50:51;16.80;99.90
41592;DHT22;28026;48.562;14.440;2023-09-18T05:53:24;17.20;99.90
41592;DHT22;28026;48.562;14.440;2023-09-18T05:55:55;17.30;99.90
41592;DHT22;28026;48.562;14.440;2023-09-18T05:58:27;17.50;99.90
41592;DHT22;28026;48.562;14.440;2023-09-18T06:00:59;17.80;99.90
41592;DHT22;28026;48.562;14.440;2023-09-18T06:03:30;17.90;99.90
41592;DHT22;28026;48.562;14.440;2023-09-18T06:06:06;18.20;99.90
41592;DHT22;28026;48.562;14.440;2023-09-18T06:08:36;18.50;99.90
41592;DHT22;28026;48.562;14.440;2023-09-18T06:11:07;18.50;99.90
41592;DHT22;28026;48.562;14.440;2023-09-18T06:13:38;17.70;99.90
41592;DHT22;28026;48.562;14.440;2023-09-18T06:16:09;17.70;99.90
41592;DHT22;28026;48.562;14.440;2023-09-18T06:18:40;17.80;99.90
41592;DHT22;28026;48.562;14.440;2023-09-18T06:21:12;18.20;99.90
41592;DHT22;28026;48.562;14.440;2023-09-18T06:23:42;18.60;99.90
41592;DHT22;28026;48.562;14.440;2023-09-18T06:26:13;19.00;99.90
41592;DHT22;28026;48.562;14.440;2023-09-18T06:28:45;19.30;99.90
41592;DHT22;28026;48.562;14.440;2023-09-18T06:31:15;19.40;99.90
41592;DHT22;28026;48.562;14.440;2023-09-18T06:33:46;19.60;99.90
41592;DHT22;28026;48.562;14.440;2023-09-18T06:36:17;19.60;99.90
41592;DHT22;28026;48.562;14.440;2023-09-18T06:38:49;19.70;99.90
41592;DHT22;28026;48.562;14.440;2023-09-18T06:41:19;19.80;99.90
41592;DHT22;28026;48.562;14.440;2023-09-18T06:43:50;19.90;99.90
41592;DHT22;28026;48.562;14.440;2023-09-18T06:46:21;20.20;99.90
41592;DHT22;28026;48.562;14.440;2023-09-18T06:48:52;20.50;99.90
41592;DHT22;28026;48.562;14.440;2023-09-18T06:51:23;20.80;99.90
41592;DHT22;28026;48.562;14.440;2023-09-18T06:53:54;20.90;99.90
41592;DHT22;28026;48.562;14.440;2023-09-18T06:56:27;20.50;99.90
41592;DHT22;28026;48.562;14.440;2023-09-18T06:58:58;20.70;99.90
41592;DHT22;28026;48.562;14.440;2023-09-18T07:01:29;21.20;99.90
41592;DHT22;28026;48.562;14.440;2023-09-18T07:04:00;21.50;99.90
41592;DHT22;28026;48.562;14.440;2023-09-18T07:06:31;21.50;99.90
41592;DHT22;28026;48.562;14.440;2023-09-18T07:09:02;22.00;99.90
41592;DHT22;28026;48.562;14.440;2023-09-18T07:11:37;22.30;99.90
41592;DHT22;28026;48.562;14.440;2023-09-18T07:14:08;22.60;99.90
41592;DHT22;28026;48.562;14.440;2023-09-18T07:16:39;22.90;99.90
41592;DHT22;28026;48.562;14.440;2023-09-18T07:19:10;23.10;99.90
41592;DHT22;28026;48.562;14.440;2023-09-18T07:21:42;23.10;99.90
41592;DHT22;28026;48.562;14.440;2023-09-18T07:24:13;23.20;99.90
41592;DHT22;28026;48.562;14.440;2023-09-18T07:26:47;23.00;99.90
41592;DHT22;28026;48.562;14.440;2023-09-18T07:29:18;23.40;99.90
41592;DHT22;28026;48.562;14.440;2023-09-18T07:31:50;23.20;99.90
41592;DHT22;28026;48.562;14.440;2023-09-18T07:34:22;23.00;99.90
41592;DHT22;28026;48.562;14.440;2023-09-18T07:36:53;23.30;99.90
41592;DHT22;28026;48.562;14.440;2023-09-18T07:39:25;23.80;99.90
41592;DHT22;28026;48.562;14.440;2023-09-18T07:41:56;24.20;99.90
41592;DHT22;28026;48.562;14.440;2023-09-18T07:44:27;24.20;99.90
41592;DHT22;28026;48.562;14.440;2023-09-18T07:46:58;23.80;99.90
41592;DHT22;28026;48.562;14.440;2023-09-18T07:49:31;23.80;99.90
41592;DHT22;28026;48.562;14.440;2023-09-18T07:52:02;24.00;99.90
41592;DHT22;28026;48.562;14.440;2023-09-18T07:54:33;23.80;99.90
41592;DHT22;28026;48.562;14.440;2023-09-18T07:57:04;23.70;99.90
41592;DHT22;28026;48.562;14.440;2023-09-18T07:59:39;23.70;99.90
41592;DHT22;28026;48.562;14.440;2023-09-18T08:02:12;23.60;99.90
41592;DHT22;28026;48.562;14.440;2023-09-18T08:04:43;23.70;99.90
41592;DHT22;28026;48.562;14.440;2023-09-18T08:07:14;24.00;99.90
41592;DHT22;28026;48.562;14.440;2023-09-18T08:09:45;24.00;99.90
41592;DHT22;28026;48.562;14.440;2023-09-18T08:12:19;24.20;99.90
41592;DHT22;28026;48.562;14.440;2023-09-18T08:14:50;24.80;99.90
41592;DHT22;28026;48.562;14.440;2023-09-18T08:17:21;24.70;99.90
41592;DHT22;28026;48.562;14.440;2023-09-18T08:19:53;24.50;99.90
41592;DHT22;28026;48.562;14.440;2023-09-18T08:22:24;24.60;99.90
41592;DHT22;28026;48.562;14.440;2023-09-18T08:24:55;24.40;99.90
41592;DHT22;28026;48.562;14.440;2023-09-18T08:27:26;24.10;99.90
41592;DHT22;28026;48.562;14.440;2023-09-18T08:29:57;23.90;99.90
41592;DHT22;28026;48.562;14.440;2023-09-18T08:32:27;24.00;99.90
41592;DHT22;28026;48.562;14.440;2023-09-18T08:35:00;24.10;99.90
41592;DHT22;28026;48.562;14.440;2023-09-18T08:37:34;24.50;99.90
41592;DHT22;28026;48.562;14.440;2023-09-18T08:40:06;24.70;99.90
41592;DHT22;28026;48.562;14.440;2023-09-18T08:42:45;24.90;99.90
41592;DHT22;28026;48.562;14.440;2023-09-18T08:48:06;25.60;99.90
41592;DHT22;28026;48.562;14.440;2023-09-18T08:50:39;25.80;99.90
41592;DHT22;28026;48.562;14.440;2023-09-18T08:53:12;25.90;99.90
41592;DHT22;28026;48.562;14.440;2023-09-18T08:55:43;25.90;99.90
41592;DHT22;28026;48.562;14.440;2023-09-18T08:58:14;26.00;99.90
41592;DHT22;28026;48.562;14.440;2023-09-18T09:00:49;26.30;99.90
41592;DHT22;28026;48.562;14.440;2023-09-18T09:03:20;26.40;99.90
41592;DHT22;28026;48.562;14.440;2023-09-18T09:05:51;26.10;99.90
41592;DHT22;28026;48.562;14.440;2023-09-18T09:08:22;26.40;99.90
41592;DHT22;28026;48.562;14.440;2023-09-18T09:10:53;26.30;99.90
41592;DHT22;28026;48.562;14.440;2023-09-18T09:13:25;26.60;99.90
41592;DHT22;28026;48.562;14.440;2023-09-18T09:15:57;26.40;99.90
41592;DHT22;28026;48.562;14.440;2023-09-18T09:18:30;26.60;99.90
41592;DHT22;28026;48.562;14.440;2023-09-18T09:21:04;26.30;99.90
41592;DHT22;28026;48.562;14.440;2023-09-18T09:23:50;26.60;99.90
41592;DHT22;28026;48.562;14.440;2023-09-18T09:26:23;26.80;99.90
41592;DHT22;28026;48.562;14.440;2023-09-18T09:28:54;26.90;99.90
41592;DHT22;28026;48.562;14.440;2023-09-18T09:31:28;27.20;99.90
41592;DHT22;28026;48.562;14.440;2023-09-18T09:34:01;27.00;99.90
41592;DHT22;28026;48.562;14.440;2023-09-18T09:36:35;26.70;99.90
41592;DHT22;28026;48.562;14.440;2023-09-18T09:39:06;26.50;99.90
41592;DHT22;28026;48.562;14.440;2023-09-18T09:41:37;26.30;99.90
41592;DHT22;28026;48.562;14.440;2023-09-18T09:44:15;26.40;99.90
41592;DHT22;28026;48.562;14.440;2023-09-18T09:46:50;26.40;99.90
41592;DHT22;28026;48.562;14.440;2023-09-18T09:49:21;26.20;99.90
41592;DHT22;28026;48.562;14.440;2023-09-18T09:51:54;25.90;99.90
41592;DHT22;28026;48.562;14.440;2023-09-18T09:54:33;25.90;99.90
41592;DHT22;28026;48.562;14.440;2023-09-18T09:57:11;26.20;99.90
41592;DHT22;28026;48.562;14.440;2023-09-18T09:59:41;26.40;99.90
41592;DHT22;28026;48.562;14.440;2023-09-18T10:02:15;26.80;99.90
41592;DHT22;28026;48.562;14.440;2023-09-18T10:04:52;26.60;99.90
41592;DHT22;28026;48.562;14.440;2023-09-18T10:07:24;26.90;99.90
41592;DHT22;28026;48.562;14.440;2023-09-18T10:09:55;27.20;99.90
41592;DHT22;28026;48.562;14.440;2023-09-18T10:12:26;27.60;99.90
41592;DHT22;28026;48.562;14.440;2023-09-18T10:14:57;27.50;99.90
41592;DHT22;28026;48.562;14.440;2023-09-18T10:17:29;28.00;99.90
41592;DHT22;28026;48.562;14.440;2023-09-18T10:20:07;28.40;99.90
41592;DHT22;28026;48.562;14.440;2023-09-18T10:22:41;28.30;99.90
41592;DHT22;28026;48.562;14.440;2023-09-18T10:25:21;28.90;99.90
41592;DHT22;28026;48.562;14.440;2023-09-18T10:27:55;28.70;99.90
41592;DHT22;28026;48.562;14.440;2023-09-18T10:30:32;28.80;99.90
41592;DHT22;28026;48.562;14.440;2023-09-18T10:33:05;28.80;99.90
41592;DHT22;28026;48.562;14.440;2023-09-18T10:35:38;28.70;99.90
41592;DHT22;28026;48.562;14.440;2023-09-18T10:38:10;29.20;99.90
41592;DHT22;28026;48.562;14.440;2023-09-18T10:40:43;28.80;99.90
41592;DHT22;28026;48.562;14.440;2023-09-18T10:43:17;29.20;99.90
41592;DHT22;28026;48.562;14.440;2023-09-18T10:45:49;29.00;99.90
41592;DHT22;28026;48.562;14.440;2023-09-18T10:48:22;29.40;99.90
41592;DHT22;28026;48.562;14.440;2023-09-18T10:50:56;30.00;99.90
41592;DHT22;28026;48.562;14.440;2023-09-18T10:53:29;30.30;99.90
41592;DHT22;28026;48.562;14.440;2023-09-18T10:56:01;30.20;99.90
41592;DHT22;28026;48.562;14.440;2023-09-18T10:58:36;30.20;99.90
41592;DHT22;28026;48.562;14.440;2023-09-18T11:01:12;30.20;99.90
41592;DHT22;28026;48.562;14.440;2023-09-18T11:03:43;29.90;99.90
41592;DHT22;28026;48.562;14.440;2023-09-18T11:06:15;29.30;99.90
41592;DHT22;28026;48.562;14.440;2023-09-18T11:08:49;29.70;99.90
41592;DHT22;28026;48.562;14.440;2023-09-18T11:11:22;29.60;99.90
41592;DHT22;28026;48.562;14.440;2023-09-18T11:13:56;29.80;99.90
41592;DHT22;28026;48.562;14.440;2023-09-18T11:21:31;31.10;99.90
41592;DHT22;28026;48.562;14.440;2023-09-18T11:24:05;31.70;99.90
41592;DHT22;28026;48.562;14.440;2023-09-18T11:26:42;31.40;99.90
41592;DHT22;28026;48.562;14.440;2023-09-18T11:29:16;31.00;99.90
41592;DHT22;28026;48.562;14.440;2023-09-18T11:31:54;30.50;99.90
41592;DHT22;28026;48.562;14.440;2023-09-18T11:34:29;30.20;99.90
41592;DHT22;28026;48.562;14.440;2023-09-18T11:37:20;30.10;99.90
41592;DHT22;28026;48.562;14.440;2023-09-18T11:39:52;30.50;99.90
41592;DHT22;28026;48.562;14.440;2023-09-18T11:42:24;29.20;99.90
41592;DHT22;28026;48.562;14.440;2023-09-18T11:44:59;29.90;99.90
41592;DHT22;28026;48.562;14.440;2023-09-18T11:47:30;30.30;99.90
41592;DHT22;28026;48.562;14.440;2023-09-18T11:50:03;30.40;99.90
41592;DHT22;28026;48.562;14.440;2023-09-18T11:52:41;30.00;99.90
41592;DHT22;28026;48.562;14.440;2023-09-18T11:55:13;30.20;99.90
41592;DHT22;28026;48.562;14.440;2023-09-18T11:57:45;30.00;99.90
41592;DHT22;28026;48.562;14.440;2023-09-18T12:00:20;29.70;99.90
41592;DHT22;28026;48.562;14.440;2023-09-18T12:02:54;30.10;99.90
41592;DHT22;28026;48.562;14.440;2023-09-18T12:05:26;29.00;99.90
41592;DHT22;28026;48.562;14.440;2023-09-18T12:07:57;28.30;99.90
41592;DHT22;28026;48.562;14.440;2023-09-18T12:10:28;28.10;99.90
41592;DHT22;28026;48.562;14.440;2023-09-18T12:12:59;28.20;99.90
41592;DHT22;28026;48.562;14.440;2023-09-18T12:15:30;27.60;99.90
41592;DHT22;28026;48.562;14.440;2023-09-18T12:18:06;27.50;99.90
41592;DHT22;28026;48.562;14.440;2023-09-18T12:20:45;26.70;99.90
41592;DHT22;28026;48.562;14.440;2023-09-18T12:23:18;26.40;99.90
41592;DHT22;28026;48.562;14.440;2023-09-18T12:25:58;26.90;99.90
41592;DHT22;28026;48.562;14.440;2023-09-18T12:28:31;26.80;99.90
41592;DHT22;28026;48.562;14.440;2023-09-18T12:31:04;26.70;99.90
41592;DHT22;28026;48.562;14.440;2023-09-18T12:33:36;27.10;99.90
41592;DHT22;28026;48.562;14.440;2023-09-18T12:36:10;27.80;99.90
41592;DHT22;28026;48.562;14.440;2023-09-18T12:38:41;27.70;99.90
41592;DHT22;28026;48.562;14.440;2023-09-18T12:41:12;28.00;99.90
41592;DHT22;28026;48.562;14.440;2023-09-18T12:43:44;27.70;99.90
41592;DHT22;28026;48.562;14.440;2023-09-18T12:46:16;27.50;99.90
41592;DHT22;28026;48.562;14.440;2023-09-18T12:48:49;27.50;99.90
41592;DHT22;28026;48.562;14.440;2023-09-18T12:51:30;27.30;99.90
41592;DHT22;28026;48.562;14.440;2023-09-18T12:54:05;27.00;99.90
41592;DHT22;28026;48.562;14.440;2023-09-18T12:56:40;27.00;99.90
41592;DHT22;28026;48.562;14.440;2023-09-18T12:59:12;26.90;99.90
41592;DHT22;28026;48.562;14.440;2023-09-18T13:01:47;27.10;99.90
41592;DHT22;28026;48.562;14.440;2023-09-18T13:04:18;27.00;99.90
41592;DHT22;28026;48.562;14.440;2023-09-18T13:07:13;27.50;99.90
41592;DHT22;28026;48.562;14.440;2023-09-18T13:10:05;27.10;99.90
41592;DHT22;28026;48.562;14.440;2023-09-18T13:12:50;27.00;99.90
41592;DHT22;28026;48.562;14.440;2023-09-18T13:15:32;26.70;99.90
41592;DHT22;28026;48.562;14.440;2023-09-18T13:18:11;27.10;99.90
41592;DHT22;28026;48.562;14.440;2023-09-18T13:20:43;27.90;99.90
41592;DHT22;28026;48.562;14.440;2023-09-18T13:23:15;27.40;99.90
41592;DHT22;28026;48.562;14.440;2023-09-18T13:25:46;27.10;99.90
41592;DHT22;28026;48.562;14.440;2023-09-18T13:28:17;27.00;99.90
41592;DHT22;28026;48.562;14.440;2023-09-18T13:30:51;27.10;99.90
41592;DHT22;28026;48.562;14.440;2023-09-18T13:33:22;27.40;99.90
41592;DHT22;28026;48.562;14.440;2023-09-18T13:35:53;27.30;99.90
41592;DHT22;28026;48.562;14.440;2023-09-18T13:38:26;27.30;99.90
41592;DHT22;28026;48.562;14.440;2023-09-18T13:40:57;27.50;99.90
41592;DHT22;28026;48.562;14.440;2023-09-18T13:43:28;27.90;99.90
41592;DHT22;28026;48.562;14.440;2023-09-18T13:46:02;28.20;99.90
41592;DHT22;28026;48.562;14.440;2023-09-18T13:48:35;27.10;99.90
41592;DHT22;28026;48.562;14.440;2023-09-18T13:51:07;27.30;99.90
41592;DHT22;28026;48.562;14.440;2023-09-18T13:53:38;27.30;99.90
41592;DHT22;28026;48.562;14.440;2023-09-18T13:56:10;27.40;99.90
41592;DHT22;28026;48.562;14.440;2023-09-18T13:58:41;26.90;99.90
41592;DHT22;28026;48.562;14.440;2023-09-18T14:01:12;26.60;99.90
41592;DHT22;28026;48.562;14.440;2023-09-18T14:03:45;26.80;99.90
41592;DHT22;28026;48.562;14.440;2023-09-18T14:06:16;26.70;99.90
41592;DHT22;28026;48.562;14.440;2023-09-18T14:08:47;26.10;99.90
41592;DHT22;28026;48.562;14.440;2023-09-18T14:11:18;26.50;99.90
41592;DHT22;28026;48.562;14.440;2023-09-18T14:13:49;26.10;99.90
41592;DHT22;28026;48.562;14.440;2023-09-18T14:16:20;26.00;99.90
41592;DHT22;28026;48.562;14.440;2023-09-18T14:18:51;25.80;99.90
41592;DHT22;28026;48.562;14.440;2023-09-18T14:21:24;25.40;99.90
41592;DHT22;28026;48.562;14.440;2023-09-18T14:23:55;25.20;99.90
41592;DHT22;28026;48.562;14.440;2023-09-18T14:26:26;25.20;99.90
41592;DHT22;28026;48.562;14.440;2023-09-18T14:28:57;25.40;99.90
41592;DHT22;28026;48.562;14.440;2023-09-18T14:31:28;25.20;99.90
41592;DHT22;28026;48.562;14.440;2023-09-18T14:33:58;25.00;99.90
41592;DHT22;28026;48.562;14.440;2023-09-18T14:36:30;24.80;99.90
41592;DHT22;28026;48.562;14.440;2023-09-18T14:39:03;24.70;99.90
41592;DHT22;28026;48.562;14.440;2023-09-18T14:41:37;24.40;99.90
41592;DHT22;28026;48.562;14.440;2023-09-18T14:44:09;24.30;99.90
41592;DHT22;28026;48.562;14.440;2023-09-18T14:46:40;24.30;99.90
41592;DHT22;28026;48.562;14.440;2023-09-18T14:49:11;24.00;99.90
41592;DHT22;28026;48.562;14.440;2023-09-18T14:51:44;23.80;99.90
41592;DHT22;28026;48.562;14.440;2023-09-18T14:54:15;23.50;99.90
41592;DHT22;28026;48.562;14.440;2023-09-18T14:56:46;23.20;99.90
41592;DHT22;28026;48.562;14.440;2023-09-18T14:59:17;23.10;99.90
41592;DHT22;28026;48.562;14.440;2023-09-18T15:01:49;23.00;99.90
41592;DHT22;28026;48.562;14.440;2023-09-18T15:04:20;23.00;99.90
41592;DHT22;28026;48.562;14.440;2023-09-18T15:06:52;23.20;99.90
41592;DHT22;28026;48.562;14.440;2023-09-18T15:09:23;23.00;99.90
41592;DHT22;28026;48.562;14.440;2023-09-18T15:11:54;23.00;99.90
41592;DHT22;28026;48.562;14.440;2023-09-18T15:14:25;22.60;99.90
41592;DHT22;28026;48.562;14.440;2023-09-18T15:16:56;22.60;99.90
41592;DHT22;28026;48.562;14.440;2023-09-18T15:19:26;22.50;99.90
41592;DHT22;28026;48.562;14.440;2023-09-18T15:21:58;22.20;99.90
41592;DHT22;28026;48.562;14.440;2023-09-18T15:24:29;22.10;99.90
41592;DHT22;28026;48.562;14.440;2023-09-18T15:27:00;22.30;99.90
41592;DHT22;28026;48.562;14.440;2023-09-18T15:29:31;22.10;99.90
41592;DHT22;28026;48.562;14.440;2023-09-18T15:32:02;22.30;99.90
41592;DHT22;28026;48.562;14.440;2023-09-18T15:34:34;22.20;99.90
41592;DHT22;28026;48.562;14.440;2023-09-18T15:37:05;22.30;99.90
41592;DHT22;28026;48.562;14.440;2023-09-18T15:39:36;22.30;99.90
41592;DHT22;28026;48.562;14.440;2023-09-18T15:42:06;22.30;99.90
41592;DHT22;28026;48.562;14.440;2023-09-18T15:44:37;22.40;99.90
41592;DHT22;28026;48.562;14.440;2023-09-18T15:47:08;22.40;99.90
41592;DHT22;28026;48.562;14.440;2023-09-18T15:49:39;22.10;99.90
41592;DHT22;28026;48.562;14.440;2023-09-18T15:52:10;21.70;99.90
41592;DHT22;28026;48.562;14.440;2023-09-18T15:54:41;21.70;99.90
41592;DHT22;28026;48.562;14.440;2023-09-18T15:57:14;21.90;99.90